createdAt,value
2018-04-18T00:00:06.393Z,3.30
2018-04-18T00:02:34.680Z,3.60
2018-04-18T00:05:06.883Z,3.43
2018-04-18T00:07:35.335Z,3.37
2018-04-18T00:10:07.421Z,2.97
2018-04-18T00:12:35.810Z,3.07
2018-04-18T00:15:08.337Z,3.03
2018-04-18T00:17:36.627Z,3.30
2018-04-18T00:20:06.052Z,3.20
2018-04-18T00:22:34.699Z,3.10
2018-04-18T00:25:06.556Z,3.43
2018-04-18T00:27:34.974Z,3.30
2018-04-18T00:30:06.978Z,2.80
2018-04-18T00:32:35.314Z,3.40
2018-04-18T00:35:06.505Z,3.20
2018-04-18T00:37:34.815Z,2.77
2018-04-18T00:40:06.057Z,2.60
2018-04-18T00:42:34.382Z,3.00
2018-04-18T00:45:09.390Z,3.30
2018-04-18T00:47:38.272Z,3.13
2018-04-18T00:50:06.556Z,3.30
2018-04-18T00:52:35.059Z,3.20
2018-04-18T00:55:07.108Z,3.03
2018-04-18T00:57:35.703Z,3.30
2018-04-18T01:00:07.433Z,2.93
2018-04-18T01:02:35.698Z,3.20
2018-04-18T01:05:07.170Z,3.43
2018-04-18T01:07:35.436Z,3.27
2018-04-18T01:10:07.483Z,3.03
2018-04-18T01:12:35.763Z,3.33
2018-04-18T01:15:07.316Z,3.23
2018-04-18T01:17:35.586Z,3.37
2018-04-18T01:20:07.139Z,3.40
2018-04-18T01:22:35.570Z,3.53
2018-04-18T01:25:07.825Z,3.93
2018-04-18T01:27:36.091Z,3.30
2018-04-18T01:30:06.390Z,3.50
2018-04-18T01:32:34.637Z,3.07
2018-04-18T01:35:06.383Z,3.17
2018-04-18T01:37:35.030Z,3.40
2018-04-18T01:40:06.460Z,3.23
2018-04-18T01:42:35.470Z,3.37
2018-04-18T01:45:07.105Z,3.20
2018-04-18T01:47:35.395Z,3.40
2018-04-18T01:50:06.194Z,3.20
2018-04-18T01:52:34.468Z,3.13
2018-04-18T01:55:06.307Z,3.40
2018-04-18T01:57:34.633Z,3.23
2018-04-18T02:00:08.567Z,3.27
2018-04-18T02:02:36.858Z,3.23
2018-04-18T02:05:06.239Z,3.27
2018-04-18T02:07:34.523Z,3.63
2018-04-18T02:10:06.268Z,3.30
2018-04-18T02:12:34.808Z,3.50
2018-04-18T02:15:06.918Z,3.20
2018-04-18T02:17:35.202Z,3.60
2018-04-18T02:20:07.287Z,3.60
2018-04-18T02:22:35.787Z,3.70
2018-04-18T02:25:08.016Z,3.77
2018-04-18T02:27:36.319Z,3.10
2018-04-18T02:30:07.768Z,3.40
2018-04-18T02:32:36.022Z,3.40
2018-04-18T02:35:07.333Z,3.70
2018-04-18T02:37:35.815Z,3.47
2018-04-18T02:40:07.730Z,3.87
2018-04-18T02:42:35.998Z,3.30
2018-04-18T02:45:08.067Z,3.23
2018-04-18T02:47:36.342Z,3.13
2018-04-18T02:50:06.279Z,3.53
2018-04-18T02:52:34.555Z,3.70
2018-04-18T02:55:09.493Z,3.63
2018-04-18T02:57:38.394Z,3.80
2018-04-18T03:00:06.685Z,3.83
2018-04-18T03:02:34.959Z,3.80
2018-04-18T03:05:06.302Z,3.90
2018-04-18T03:07:35.047Z,3.70
2018-04-18T03:10:07.400Z,4.00
2018-04-18T03:12:35.987Z,3.80
2018-04-18T03:15:07.885Z,3.93
2018-04-18T03:17:36.335Z,3.83
2018-04-18T03:20:06.363Z,4.03
2018-04-18T03:22:34.818Z,3.70
2018-04-18T03:25:06.559Z,4.03
2018-04-18T03:27:34.848Z,3.93
2018-04-18T03:30:06.585Z,4.30
2018-04-18T03:32:34.867Z,3.67
2018-04-18T03:35:06.451Z,4.33
2018-04-18T03:37:34.734Z,3.90
2018-04-18T03:40:09.858Z,4.10
2018-04-18T03:42:38.225Z,4.30
2018-04-18T03:45:07.363Z,3.97
2018-04-18T03:47:35.652Z,3.70
2018-04-18T03:50:07.799Z,4.10
2018-04-18T03:52:36.083Z,3.97
2018-04-18T03:55:06.441Z,4.10
2018-04-18T03:57:34.747Z,4.10
2018-04-18T04:00:06.391Z,3.97
2018-04-18T04:02:34.771Z,4.00
2018-04-18T04:05:07.058Z,4.23
2018-04-18T04:07:35.345Z,4.40
2018-04-18T04:10:06.589Z,4.53
2018-04-18T04:12:35.596Z,4.60
2018-04-18T04:15:07.326Z,4.50
2018-04-18T04:17:47.529Z,4.50
2018-04-18T04:20:27.548Z,4.90
2018-04-18T04:23:07.557Z,4.33
2018-04-18T04:25:35.817Z,4.10
2018-04-18T04:28:04.109Z,4.80
2018-04-18T04:30:33.548Z,4.47
2018-04-18T04:33:01.812Z,4.63
2018-04-18T04:35:30.099Z,4.80
2018-04-18T04:37:58.696Z,4.70
2018-04-18T04:40:27.026Z,4.10
2018-04-18T04:42:55.300Z,4.20
2018-04-18T04:45:23.604Z,4.67
2018-04-18T04:47:52.153Z,5.07
2018-04-18T04:50:20.478Z,5.77
2018-04-18T04:52:48.766Z,5.10
2018-04-18T04:55:17.090Z,5.50
2018-04-18T04:57:45.379Z,5.90
2018-04-18T05:00:13.681Z,5.90
2018-04-18T05:02:41.983Z,5.43
2018-04-18T05:05:10.865Z,5.70
2018-04-18T05:07:39.148Z,5.33
2018-04-18T05:10:07.448Z,6.00
2018-04-18T05:12:35.723Z,5.80
2018-04-18T05:15:05.865Z,5.37
2018-04-18T05:17:34.350Z,5.00
2018-04-18T05:20:05.819Z,5.03
2018-04-18T05:22:34.106Z,4.90
2018-04-18T05:25:05.658Z,5.57
2018-04-18T05:27:34.122Z,5.37
2018-04-18T05:30:05.471Z,5.90
2018-04-18T05:32:33.802Z,5.97
2018-04-18T05:35:05.603Z,5.73
2018-04-18T05:37:33.907Z,5.53
2018-04-18T05:40:05.538Z,5.70
2018-04-18T05:42:37.872Z,5.73
2018-04-18T05:45:06.173Z,5.83
2018-04-18T05:47:34.559Z,5.40
2018-04-18T05:50:10.520Z,5.47
2018-04-18T05:52:38.815Z,5.30
2018-04-18T05:55:07.087Z,5.90
2018-04-18T05:57:35.680Z,5.27
2018-04-18T06:00:05.658Z,5.50
2018-04-18T06:02:34.171Z,5.73
2018-04-18T06:05:09.201Z,5.57
2018-04-18T06:07:37.488Z,5.63
2018-04-18T06:10:05.760Z,5.57
2018-04-18T06:12:34.110Z,5.30
2018-04-18T06:15:09.114Z,5.73
2018-04-18T06:17:37.387Z,5.53
2018-04-18T06:20:05.795Z,5.13
2018-04-18T06:22:34.072Z,6.33
2018-04-18T06:25:09.108Z,6.00
2018-04-18T06:27:37.386Z,5.40
2018-04-18T06:30:06.478Z,5.97
2018-04-18T06:32:34.967Z,6.50
2018-04-18T06:35:06.521Z,6.60
2018-04-18T06:37:34.911Z,6.77
2018-04-18T06:40:05.822Z,6.63
2018-04-18T06:42:34.025Z,6.43
2018-04-18T06:45:06.164Z,6.17
2018-04-18T06:47:34.441Z,6.97
2018-04-18T06:50:06.611Z,7.03
2018-04-18T06:52:35.295Z,6.60
2018-04-18T06:55:07.458Z,7.07
2018-04-18T06:57:35.795Z,7.23
2018-04-18T07:00:05.956Z,7.57
2018-04-18T07:02:34.273Z,7.80
2018-04-18T07:05:07.535Z,7.83
2018-04-18T07:07:35.827Z,7.20
2018-04-18T07:10:07.940Z,7.47
2018-04-18T07:12:36.497Z,8.00
2018-04-18T07:15:05.993Z,8.10
2018-04-18T07:17:35.175Z,7.27
2018-04-18T07:20:07.142Z,7.43
2018-04-18T07:22:35.435Z,7.97
2018-04-18T07:25:07.450Z,7.70
2018-04-18T07:27:35.758Z,7.80
2018-04-18T07:30:07.037Z,8.03
2018-04-18T07:32:35.403Z,7.77
2018-04-18T07:35:08.988Z,7.57
2018-04-18T07:37:37.567Z,8.20
2018-04-18T07:40:05.941Z,8.97
2018-04-18T07:42:34.454Z,7.50
2018-04-18T07:45:06.027Z,7.33
2018-04-18T07:47:34.304Z,6.50
2018-04-18T07:50:05.787Z,6.47
2018-04-18T07:52:35.097Z,6.30
2018-04-18T07:55:05.987Z,5.47
2018-04-18T07:57:34.272Z,6.00
2018-04-18T08:00:06.350Z,8.90
2018-04-18T08:02:34.638Z,5.77
2018-04-18T08:05:06.743Z,6.37
2018-04-18T08:07:35.053Z,6.60
2018-04-18T08:10:07.067Z,5.60
2018-04-18T08:12:35.382Z,6.47
2018-04-18T08:15:07.429Z,5.83
2018-04-18T08:17:36.451Z,6.00
2018-04-18T08:20:06.475Z,5.43
2018-04-18T08:22:35.061Z,5.50
2018-04-18T08:25:06.299Z,5.60
2018-04-18T08:27:35.387Z,5.93
2018-04-18T08:30:07.430Z,5.07
2018-04-18T08:32:35.700Z,5.50
2018-04-18T08:35:07.840Z,5.90
2018-04-18T08:37:36.114Z,5.30
2018-04-18T08:40:06.951Z,5.50
2018-04-18T08:42:35.231Z,5.93
2018-04-18T08:45:06.613Z,6.20
2018-04-18T08:47:34.882Z,5.60
2018-04-18T08:50:07.093Z,6.00
2018-04-18T08:52:35.400Z,5.13
2018-04-18T08:55:07.449Z,5.90
2018-04-18T08:57:35.798Z,5.60
2018-04-18T09:00:07.995Z,5.80
2018-04-18T09:02:37.251Z,5.90
2018-04-18T09:05:06.372Z,5.70
2018-04-18T09:07:34.783Z,8.07
2018-04-18T09:10:06.135Z,6.17
2018-04-18T09:12:34.458Z,6.10
2018-04-18T09:15:09.945Z,5.60
2018-04-18T09:17:38.251Z,5.97
2018-04-18T09:20:06.807Z,5.80
2018-04-18T09:22:35.108Z,6.33
2018-04-18T09:25:06.315Z,5.70
2018-04-18T09:27:34.605Z,5.63
2018-04-18T09:30:06.371Z,5.73
2018-04-18T09:32:34.658Z,5.50
2018-04-18T09:35:05.964Z,6.00
2018-04-18T09:37:34.253Z,6.10
2018-04-18T09:40:05.785Z,5.70
2018-04-18T09:42:34.125Z,5.57
2018-04-18T09:45:09.154Z,5.73
2018-04-18T09:47:37.464Z,5.60
2018-04-18T09:50:06.388Z,5.30
2018-04-18T09:52:34.680Z,4.97
2018-04-18T09:55:10.275Z,5.43
2018-04-18T09:57:38.571Z,5.00
2018-04-18T10:00:06.868Z,5.07
2018-04-18T10:02:38.086Z,5.13
2018-04-18T10:05:08.410Z,5.00
2018-04-18T10:07:36.684Z,5.10
2018-04-18T10:10:06.604Z,4.73
2018-04-18T10:12:34.876Z,4.77
2018-04-18T10:15:08.939Z,4.60
2018-04-18T10:17:37.220Z,4.80
2018-04-18T10:20:06.737Z,4.53
2018-04-18T10:22:35.008Z,4.70
2018-04-18T10:25:06.691Z,4.33
2018-04-18T10:27:34.967Z,4.63
2018-04-18T10:30:06.488Z,4.50
2018-04-18T10:32:34.769Z,4.47
2018-04-18T10:35:06.585Z,4.50
2018-04-18T10:37:35.133Z,3.70
2018-04-18T10:40:07.175Z,3.87
2018-04-18T10:42:36.170Z,4.03
2018-04-18T10:45:17.082Z,4.03
2018-04-18T10:47:45.641Z,4.03
2018-04-18T10:50:14.630Z,4.10
2018-04-18T10:52:42.884Z,3.90
2018-04-18T10:55:11.160Z,3.47
2018-04-18T10:57:39.443Z,4.70
2018-04-18T11:00:07.729Z,4.40
2018-04-18T11:02:36.037Z,3.87
2018-04-18T11:05:07.495Z,4.03
2018-04-18T11:07:35.774Z,3.73
2018-04-18T11:10:06.382Z,3.37
2018-04-18T11:12:34.666Z,4.20
2018-04-18T11:15:07.929Z,4.00
2018-04-18T11:17:36.483Z,3.83
2018-04-18T11:20:06.418Z,4.10
2018-04-18T11:22:34.742Z,3.70
2018-04-18T11:25:09.780Z,3.90
2018-04-18T11:27:38.075Z,3.37
2018-04-18T11:30:07.500Z,3.70
2018-04-18T11:32:35.787Z,3.53
2018-04-18T11:35:06.573Z,3.70
2018-04-18T11:37:34.947Z,3.60
2018-04-18T11:40:06.741Z,3.20
2018-04-18T11:42:35.021Z,3.60
2018-04-18T11:45:06.770Z,3.70
2018-04-18T11:47:35.058Z,3.60
2018-04-18T11:50:09.020Z,4.03
2018-04-18T11:52:37.337Z,3.40
2018-04-18T11:55:06.758Z,3.20
2018-04-18T11:57:35.114Z,3.50
2018-04-18T12:00:07.316Z,3.37
2018-04-18T12:02:35.634Z,3.40
2018-04-18T12:05:07.679Z,3.87
2018-04-18T12:07:36.309Z,3.70
2018-04-18T12:10:08.509Z,3.50
2018-04-18T12:12:36.908Z,3.50
2018-04-18T12:15:08.311Z,3.47
2018-04-18T12:17:36.588Z,3.50
2018-04-18T12:20:06.515Z,3.63
2018-04-18T12:22:34.790Z,3.43
2018-04-18T12:25:05.543Z,3.43
2018-04-18T12:27:33.838Z,3.67
2018-04-18T12:30:05.302Z,3.40
2018-04-18T12:32:33.854Z,3.50
2018-04-18T12:35:05.522Z,3.30
2018-04-18T12:37:34.028Z,3.40
2018-04-18T12:40:08.944Z,3.57
2018-04-18T12:42:37.209Z,3.53
2018-04-18T12:45:05.759Z,3.30
2018-04-18T12:47:34.191Z,3.20
2018-04-18T12:50:08.461Z,3.80
2018-04-18T12:52:36.747Z,3.57
2018-04-18T12:55:06.067Z,4.00
2018-04-18T12:57:34.333Z,3.23
2018-04-18T13:00:06.525Z,4.03
2018-04-18T13:02:35.110Z,3.73
2018-04-18T13:05:06.551Z,4.00
2018-04-18T13:07:34.836Z,3.83
2018-04-18T13:10:05.879Z,3.07
2018-04-18T13:12:34.183Z,3.70
2018-04-18T13:15:06.913Z,5.03
2018-04-18T13:17:35.219Z,3.33
2018-04-18T13:20:07.254Z,3.57
2018-04-18T13:22:35.559Z,8.43
2018-04-18T13:25:07.618Z,13.97
2018-04-18T13:27:35.909Z,5.40
2018-04-18T13:30:06.031Z,3.63
2018-04-18T13:32:34.326Z,3.47
2018-04-18T13:35:06.433Z,4.00
2018-04-18T13:37:34.716Z,3.73
2018-04-18T13:40:07.023Z,3.57
2018-04-18T13:42:35.310Z,7.93
2018-04-18T13:45:06.990Z,4.23
2018-04-18T13:47:35.440Z,3.70
2018-04-18T13:50:07.650Z,3.80
2018-04-18T13:52:35.943Z,4.20
2018-04-18T13:55:07.878Z,3.40
2018-04-18T13:57:36.178Z,3.67
2018-04-18T14:00:07.483Z,3.63
2018-04-18T14:02:35.808Z,4.10
2018-04-18T14:05:08.890Z,3.57
2018-04-18T14:07:37.338Z,2.90
2018-04-18T14:10:05.716Z,3.50
2018-04-18T14:12:34.023Z,3.10
2018-04-18T14:15:06.911Z,3.17
2018-04-18T14:17:35.951Z,3.10
2018-04-18T14:20:05.877Z,3.30
2018-04-18T14:22:34.165Z,3.20
2018-04-18T14:25:09.188Z,3.10
2018-04-18T14:27:38.595Z,3.40
2018-04-18T14:30:07.691Z,3.10
2018-04-18T14:32:36.148Z,2.87
2018-04-18T14:35:07.386Z,3.00
2018-04-18T14:37:35.690Z,2.90
2018-04-18T14:40:05.872Z,4.67
2018-04-18T14:42:34.148Z,3.70
2018-04-18T14:45:05.685Z,3.70
2018-04-18T14:47:34.675Z,2.93
2018-04-18T14:50:06.803Z,3.57
2018-04-18T14:52:35.088Z,2.67
2018-04-18T14:55:05.896Z,3.30
2018-04-18T14:57:34.164Z,2.93
2018-04-18T15:00:05.707Z,3.00
2018-04-18T15:02:34.501Z,3.17
2018-04-18T15:05:08.573Z,3.20
2018-04-18T15:07:37.164Z,3.27
2018-04-18T15:10:06.357Z,3.20
2018-04-18T15:12:34.631Z,3.83
2018-04-18T15:15:06.278Z,16.57
2018-04-18T15:17:34.758Z,3.93
2018-04-18T15:20:06.907Z,4.40
2018-04-18T15:22:35.213Z,4.13
2018-04-18T15:25:05.926Z,3.60
2018-04-18T15:27:34.232Z,3.43
2018-04-18T15:30:06.122Z,3.80
2018-04-18T15:32:34.440Z,4.80
2018-04-18T15:35:07.435Z,3.53
2018-04-18T15:37:35.737Z,3.43
2018-04-18T15:40:07.827Z,3.40
2018-04-18T15:42:36.166Z,3.07
2018-04-18T15:45:07.734Z,3.50
2018-04-18T15:47:36.104Z,3.60
2018-04-18T15:50:06.107Z,3.43
2018-04-18T15:52:34.642Z,3.43
2018-04-18T15:55:06.030Z,3.30
2018-04-18T15:57:34.331Z,3.27
2018-04-18T16:00:06.214Z,3.47
2018-04-18T16:02:34.538Z,3.00
2018-04-18T16:05:06.524Z,3.13
2018-04-18T16:07:34.874Z,3.27
2018-04-18T16:10:06.366Z,3.63
2018-04-18T16:12:34.622Z,3.53
2018-04-18T16:15:06.111Z,3.17
2018-04-18T16:17:34.411Z,3.10
2018-04-18T16:20:05.711Z,3.10
2018-04-18T16:22:34.447Z,2.80
2018-04-18T16:25:05.759Z,3.53
2018-04-18T16:27:34.030Z,3.10
2018-04-18T16:30:08.777Z,3.00
2018-04-18T16:32:37.046Z,3.50
2018-04-18T16:35:06.796Z,3.07
2018-04-18T16:37:35.122Z,3.13
2018-04-18T16:40:06.680Z,2.90
2018-04-18T16:42:34.960Z,2.80
2018-04-18T16:45:07.031Z,3.57
2018-04-18T16:47:35.335Z,5.63
2018-04-18T16:50:06.640Z,2.87
2018-04-18T16:52:35.162Z,2.70
2018-04-18T16:55:06.484Z,3.27
2018-04-18T16:57:35.101Z,2.93
2018-04-18T17:00:06.672Z,2.90
2018-04-18T17:02:34.976Z,3.03
2018-04-18T17:05:06.403Z,2.70
2018-04-18T17:07:34.712Z,2.60
2018-04-18T17:10:07.599Z,3.10
2018-04-18T17:12:36.012Z,2.73
2018-04-18T17:15:07.206Z,2.90
2018-04-18T17:17:35.506Z,2.57
2018-04-18T17:20:06.496Z,2.90
2018-04-18T17:22:34.789Z,2.77
2018-04-18T17:25:06.783Z,2.63
2018-04-18T17:27:35.078Z,3.27
2018-04-18T17:30:09.006Z,3.00
2018-04-18T17:32:37.309Z,2.90
2018-04-18T17:35:06.642Z,4.57
2018-04-18T17:37:35.348Z,4.07
2018-04-18T17:40:06.487Z,3.03
2018-04-18T17:42:35.143Z,3.17
2018-04-18T17:45:06.500Z,3.03
2018-04-18T17:47:35.041Z,3.00
2018-04-18T17:50:10.231Z,2.90
2018-04-18T17:52:38.539Z,3.10
2018-04-18T17:55:07.345Z,2.97
2018-04-18T17:57:35.647Z,3.63
2018-04-18T18:00:07.405Z,3.73
2018-04-18T18:02:35.712Z,4.07
2018-04-18T18:05:05.502Z,3.30
2018-04-18T18:07:33.774Z,3.23
2018-04-18T18:10:05.438Z,2.70
2018-04-18T18:12:33.711Z,3.10
2018-04-18T18:15:08.617Z,3.10
2018-04-18T18:17:37.227Z,3.10
2018-04-18T18:20:05.851Z,2.87
2018-04-18T18:22:34.143Z,3.17
2018-04-18T18:25:05.605Z,2.87
2018-04-18T18:27:33.892Z,2.93
2018-04-18T18:30:05.408Z,3.13
2018-04-18T18:32:33.681Z,2.80
2018-04-18T18:35:08.733Z,3.43
2018-04-18T18:37:37.206Z,4.17
2018-04-18T18:40:05.898Z,3.10
2018-04-18T18:42:34.241Z,3.93
2018-04-18T18:45:05.646Z,5.80
2018-04-18T18:47:33.976Z,3.67
2018-04-18T18:50:05.482Z,4.27
2018-04-18T18:52:33.916Z,5.03
2018-04-18T18:55:05.561Z,5.80
2018-04-18T18:57:33.870Z,3.70
2018-04-18T19:00:07.368Z,4.10
2018-04-18T19:02:35.629Z,18.37
2018-04-18T19:05:07.700Z,7.87
2018-04-18T19:07:36.041Z,8.83
2018-04-18T19:10:07.493Z,15.10
2018-04-18T19:12:35.793Z,10.43
2018-04-18T19:15:05.696Z,11.73
2018-04-18T19:17:34.010Z,6.80
2018-04-18T19:20:06.912Z,6.90
2018-04-18T19:22:35.229Z,11.07
2018-04-18T19:25:07.350Z,10.93
2018-04-18T19:27:35.658Z,6.87
2018-04-18T19:30:06.980Z,7.73
2018-04-18T19:32:35.316Z,8.90
2018-04-18T19:35:06.763Z,10.33
2018-04-18T19:37:35.076Z,7.30
2018-04-18T19:40:07.190Z,6.77
2018-04-18T19:42:35.524Z,5.10
2018-04-18T19:45:06.767Z,5.77
2018-04-18T19:47:35.080Z,15.20
2018-04-18T19:50:05.845Z,49.13
2018-04-18T19:52:34.274Z,40.67
2018-04-18T19:55:07.238Z,23.50
2018-04-18T19:57:35.540Z,13.43
2018-04-18T20:00:07.091Z,8.77
2018-04-18T20:02:35.387Z,12.80
2018-04-18T20:05:07.129Z,9.30
2018-04-18T20:07:35.396Z,6.37
2018-04-18T20:10:06.865Z,6.40
2018-04-18T20:12:35.147Z,6.00
2018-04-18T20:15:13.502Z,4.20
2018-04-18T20:17:41.799Z,5.87
2018-04-18T20:20:10.115Z,5.00
2018-04-18T20:22:38.459Z,4.70
2018-04-18T20:25:06.689Z,4.47
2018-04-18T20:27:35.221Z,4.70
2018-04-18T20:30:05.898Z,5.00
2018-04-18T20:32:34.583Z,5.77
2018-04-18T20:35:05.892Z,3.70
2018-04-18T20:37:34.170Z,4.17
2018-04-18T20:40:07.125Z,3.57
2018-04-18T20:42:35.480Z,4.00
2018-04-18T20:45:06.828Z,5.07
2018-04-18T20:47:35.083Z,3.80
2018-04-18T20:50:07.230Z,6.57
2018-04-18T20:52:35.509Z,6.57
2018-04-18T20:55:06.992Z,5.33
2018-04-18T20:57:35.397Z,4.03
2018-04-18T21:00:06.679Z,4.33
2018-04-18T21:02:34.987Z,3.97
2018-04-18T21:05:06.222Z,4.57
2018-04-18T21:07:34.507Z,4.47
2018-04-18T21:10:05.930Z,4.03
2018-04-18T21:12:34.373Z,3.87
2018-04-18T21:15:05.982Z,4.20
2018-04-18T21:17:34.336Z,4.10
2018-04-18T21:20:09.340Z,3.80
2018-04-18T21:22:37.626Z,3.47
2018-04-18T21:25:05.989Z,3.80
2018-04-18T21:27:34.300Z,3.70
2018-04-18T21:30:05.799Z,4.03
2018-04-18T21:32:34.452Z,4.00
2018-04-18T21:35:09.313Z,3.97
2018-04-18T21:37:37.615Z,3.70
2018-04-18T21:40:06.009Z,3.77
2018-04-18T21:42:34.301Z,3.83
2018-04-18T21:45:09.496Z,3.97
2018-04-18T21:47:37.801Z,3.67
2018-04-18T21:50:06.292Z,3.90
2018-04-18T21:52:34.900Z,3.77
2018-04-18T21:55:06.093Z,3.57
2018-04-18T21:57:34.378Z,3.80
2018-04-18T22:00:09.301Z,3.87
2018-04-18T22:02:37.570Z,3.80
2018-04-18T22:05:07.125Z,4.00
2018-04-18T22:07:35.402Z,3.63
2018-04-18T22:10:06.128Z,3.80
2018-04-18T22:12:34.408Z,3.73
2018-04-18T22:15:05.877Z,3.67
2018-04-18T22:17:34.955Z,3.77
2018-04-18T22:20:06.262Z,3.57
2018-04-18T22:22:34.540Z,5.20
2018-04-18T22:25:09.719Z,4.57
2018-04-18T22:27:37.998Z,4.10
2018-04-18T22:30:06.292Z,4.07
2018-04-18T22:32:34.566Z,4.10
2018-04-18T22:35:05.931Z,4.33
2018-04-18T22:37:34.354Z,4.50
2018-04-18T22:40:07.471Z,4.27
2018-04-18T22:42:36.194Z,4.57
2018-04-18T22:45:06.151Z,3.90
2018-04-18T22:47:34.420Z,4.20
2018-04-18T22:50:07.790Z,3.87
2018-04-18T22:52:36.070Z,3.70
2018-04-18T22:55:07.413Z,4.10
2018-04-18T22:57:35.717Z,4.20
2018-04-18T23:00:07.451Z,3.63
2018-04-18T23:02:35.715Z,3.97
2018-04-18T23:05:07.265Z,3.70
2018-04-18T23:07:35.774Z,4.00
2018-04-18T23:10:07.090Z,3.63
2018-04-18T23:12:35.546Z,3.93
2018-04-18T23:15:07.656Z,3.90
2018-04-18T23:17:35.954Z,3.70
2018-04-18T23:20:07.931Z,3.90
2018-04-18T23:22:36.756Z,3.83
2018-04-18T23:25:06.266Z,3.83
2018-04-18T23:27:34.571Z,3.37
2018-04-18T23:30:09.974Z,3.70
2018-04-18T23:32:38.261Z,4.50
2018-04-18T23:35:06.535Z,4.07
2018-04-18T23:37:34.835Z,3.97
2018-04-18T23:40:07.119Z,3.90
2018-04-18T23:42:35.448Z,4.10
2018-04-18T23:45:06.247Z,3.67
2018-04-18T23:47:34.574Z,3.73
2018-04-18T23:50:06.278Z,3.77
2018-04-18T23:52:34.559Z,3.90
2018-04-18T23:55:08.022Z,3.57
2018-04-18T23:57:36.319Z,3.80
